Pittsfield, IL

12:02 AM CST on March 02, 2015 (GMT -0600)
Pittsfield Penstone Municipal | Change Station
CLOSE
Current Station
Airport
Location: Pittsfield,
Elevation: 709 ft
Nearby Weather Stations

Elev 709 ft 39.64 °N, 90.78 °W | Updated 7 minutes ago

Clear
Clear
18 °F
Feels Like 12 °F
N
5
Wind Variable Wind from WSW

Today
High -- | Low -- °F
--% Chance of Precip.
Yesterday
High -- | Low -- °F
Precip. -- in
6:35 AM 5:56 PM
Waxing Gibbous, 89% visible
Pressure 30.49 in
Visibility 10.0 miles
Clouds Clear
Windchill 12 °F
Dew Point 15 °F
Humidity 87%
Rainfall 0.11 in
Snow Depth Not available.
UV 0 out of 12
Pollen .50 out of 12
Air Quality Not available.
Flu Activity Not available.
METAR KPPQ 020555Z AUTO 25004KT 10SM CLR M08/M09 A3049 RMK AO2 T10761094 11019 21077 410061077

More Conditions Fewer Conditions

Pressure 30.49 in
Visibility 10.0 miles
Clouds Clear
Windchill 12 °F
Dew Point 15 °F
Humidity 87%
Rainfall 0.11 in
Snow Depth Not available.
UV 0 out of 12
Pollen .50 out of 12
Air Quality Not available.
Flu Activity Not available.
METAR KPPQ 020555Z AUTO 25004KT 10SM CLR M08/M09 A3049 RMK AO2 T10761094 11019 21077 410061077

More Conditions Fewer Conditions

10-Day Weather Forecast

Almanac

Astronomy

Mar. 02, 2015 Rise Set
Actual Time
Civil Twilight
Nautical Twilight
Astronomical Twilight
Moon
Length of Visible Light
Length of Day
Tomorrow will be .
, % of the Moon is Illuminated

Today's Extremes

State Highs State Lows

Community

WunderPhotos

Upload Photos

1,801,738 photos uploaded!

WunderBlogs® & News

Nearby

Air Quality

  Air Quality AQ Index Pollutant
Not available.

Snow Depth

Station Depth Elevation

Earthquake Activity

City Distance Mag. Time & Date
Minimum magnitude displayed is 2.5.

Coastal Water Temperatures

Place Temperature

Nearby Weather Stations